createdAt,value
2022-10-26T00:04:13.832Z,9.52
2022-10-26T00:09:21.160Z,9.49
2022-10-26T00:14:30.030Z,9.56
2022-10-26T00:19:38.292Z,9.51
2022-10-26T00:24:45.331Z,9.42
2022-10-26T00:29:52.498Z,9.34
2022-10-26T00:35:10.321Z,9.26
2022-10-26T00:40:31.057Z,9.19
2022-10-26T00:45:38.250Z,9.14
2022-10-26T00:50:47.912Z,9.11
2022-10-26T00:55:57.689Z,9.06
2022-10-26T01:01:04.834Z,9.09
2022-10-26T01:06:13.362Z,9.10
2022-10-26T01:11:21.078Z,9.09
2022-10-26T01:26:54.096Z,9.20
2022-10-26T01:32:05.005Z,9.28
2022-10-26T01:37:12.408Z,9.34
2022-10-26T01:42:18.159Z,9.36
2022-10-26T01:47:23.694Z,9.35
2022-10-26T01:52:27.717Z,9.32
2022-10-26T01:57:35.111Z,9.25
2022-10-26T02:03:00.371Z,9.18
2022-10-26T02:08:18.959Z,9.18
2022-10-26T02:13:30.393Z,9.10
2022-10-26T02:18:39.492Z,9.01
2022-10-26T02:23:45.989Z,8.87
2022-10-26T02:28:54.886Z,8.75
2022-10-26T02:34:02.434Z,8.69
2022-10-26T02:39:07.857Z,8.65
2022-10-26T02:44:19.223Z,8.59
2022-10-26T02:49:23.369Z,8.47
2022-10-26T02:54:32.662Z,8.45
2022-10-26T02:59:40.540Z,8.55
2022-10-26T03:04:44.391Z,8.53
2022-10-26T03:09:47.851Z,8.40
2022-10-26T03:14:51.646Z,8.29
2022-10-26T03:19:55.572Z,8.22
2022-10-26T03:24:59.161Z,8.27
2022-10-26T03:30:02.726Z,8.22
2022-10-26T03:35:08.048Z,8.10
2022-10-26T03:40:13.588Z,8.03
2022-10-26T03:45:17.603Z,7.98
2022-10-26T03:50:22.331Z,7.95
2022-10-26T03:55:25.965Z,8.03
2022-10-26T04:00:29.921Z,8.02
2022-10-26T04:05:33.302Z,7.96
2022-10-26T04:10:36.913Z,7.87
2022-10-26T04:15:41.052Z,7.81
2022-10-26T04:20:44.560Z,7.71
2022-10-26T04:25:48.279Z,7.64
2022-10-26T04:30:52.219Z,7.60
2022-10-26T04:36:00.931Z,7.61
2022-10-26T04:41:04.642Z,7.56
2022-10-26T04:46:08.052Z,7.40
2022-10-26T04:51:12.295Z,7.27
2022-10-26T04:56:16.155Z,7.14
2022-10-26T05:01:19.756Z,7.14
2022-10-26T05:06:23.502Z,7.15
2022-10-26T05:11:26.959Z,7.23
2022-10-26T05:16:30.459Z,7.21
2022-10-26T05:21:33.934Z,7.28
2022-10-26T05:26:37.351Z,7.35
2022-10-26T05:31:40.823Z,7.39
2022-10-26T05:36:44.589Z,7.39
2022-10-26T05:41:48.025Z,7.36
2022-10-26T05:46:51.487Z,7.41
2022-10-26T05:51:55.167Z,7.52
2022-10-26T05:57:00.122Z,7.53
2022-10-26T06:02:17.372Z,7.49
2022-10-26T06:07:23.107Z,7.46
2022-10-26T06:12:28.159Z,7.44
2022-10-26T06:17:45.464Z,7.48
2022-10-26T06:22:53.319Z,7.55
2022-10-26T06:28:08.187Z,7.63
2022-10-26T06:33:24.623Z,7.68
2022-10-26T06:38:35.268Z,7.72
2022-10-26T06:43:40.811Z,7.77
2022-10-26T06:48:52.608Z,7.87
2022-10-26T06:54:05.361Z,8.00
2022-10-26T06:59:16.799Z,8.16
2022-10-26T07:04:20.377Z,8.32
2022-10-26T07:09:24.065Z,8.51
2022-10-26T07:14:27.538Z,8.63
2022-10-26T07:19:31.630Z,8.76
2022-10-26T07:24:35.309Z,8.93
2022-10-26T07:29:39.195Z,9.11
2022-10-26T07:34:43.121Z,9.29
2022-10-26T07:39:46.715Z,9.47
2022-10-26T07:44:50.249Z,9.69
2022-10-26T07:49:54.378Z,9.91
2022-10-26T07:54:58.039Z,10.12
2022-10-26T08:00:01.614Z,10.31
2022-10-26T08:05:07.417Z,10.50
2022-10-26T08:10:12.115Z,10.71
2022-10-26T08:15:16.603Z,10.92
2022-10-26T08:20:20.774Z,11.11
2022-10-26T08:25:24.827Z,11.27
2022-10-26T08:30:28.623Z,11.42
2022-10-26T08:35:32.968Z,11.59
2022-10-26T08:40:39.652Z,11.75
2022-10-26T08:45:50.740Z,11.89
2022-10-26T08:50:56.890Z,12.02
2022-10-26T08:56:06.299Z,12.13
2022-10-26T09:01:11.258Z,12.27
2022-10-26T09:06:23.587Z,12.42
2022-10-26T09:11:41.903Z,12.58
2022-10-26T09:16:57.752Z,12.75
2022-10-26T09:22:11.130Z,12.94
2022-10-26T09:27:21.421Z,13.16
2022-10-26T09:32:31.057Z,13.32
2022-10-26T09:37:40.835Z,13.44
2022-10-26T09:42:49.795Z,13.57
2022-10-26T09:47:56.871Z,13.70
2022-10-26T09:53:00.369Z,13.83
2022-10-26T09:58:13.095Z,13.91
2022-10-26T10:03:21.394Z,14.00
2022-10-26T10:08:27.250Z,14.12
2022-10-26T10:13:33.885Z,14.29
2022-10-26T10:18:39.508Z,14.43
2022-10-26T10:23:51.371Z,14.56
2022-10-26T10:28:59.543Z,14.67
2022-10-26T10:34:16.798Z,14.76
2022-10-26T10:39:37.663Z,14.90
2022-10-26T10:44:44.239Z,15.03
2022-10-26T10:49:56.300Z,15.20
2022-10-26T10:55:18.215Z,15.33
2022-10-26T11:00:22.507Z,15.42
2022-10-26T11:05:43.210Z,15.43
2022-10-26T11:10:51.456Z,15.45
2022-10-26T11:16:00.465Z,15.50
2022-10-26T11:21:09.173Z,15.55
2022-10-26T11:26:16.913Z,15.64
2022-10-26T11:31:28.031Z,15.72
2022-10-26T11:36:35.963Z,15.77
2022-10-26T11:41:45.825Z,15.84
2022-10-26T11:46:55.401Z,15.91
2022-10-26T11:52:04.632Z,15.98
2022-10-26T11:57:10.569Z,16.03
2022-10-26T12:02:18.197Z,16.08
2022-10-26T12:07:28.132Z,16.11
2022-10-26T12:12:40.836Z,16.19
2022-10-26T12:17:49.141Z,16.28
2022-10-26T12:22:53.293Z,16.38
2022-10-26T12:27:59.868Z,16.46
2022-10-26T12:33:24.383Z,16.54
2022-10-26T12:39:04.927Z,16.63
2022-10-26T12:44:33.346Z,16.70
2022-10-26T12:50:00.539Z,16.77
2022-10-26T12:55:34.391Z,16.85
2022-10-26T13:00:43.979Z,16.88
2022-10-26T13:06:36.853Z,16.89
2022-10-26T13:11:46.647Z,16.85
2022-10-26T13:16:50.612Z,16.85
2022-10-26T13:21:58.053Z,16.83
2022-10-26T13:27:25.295Z,16.76
2022-10-26T13:32:29.897Z,16.70
2022-10-26T13:37:34.949Z,16.61
2022-10-26T13:42:46.031Z,16.52
2022-10-26T13:47:56.572Z,16.43
2022-10-26T13:53:07.274Z,16.35
2022-10-26T13:58:19.492Z,16.31
2022-10-26T14:03:23.289Z,16.28
2022-10-26T14:08:27.007Z,16.28
2022-10-26T14:13:32.400Z,16.25
2022-10-26T14:18:38.026Z,16.24
2022-10-26T14:40:02.128Z,16.19
2022-10-26T14:45:29.819Z,16.08
2022-10-26T14:51:05.304Z,15.94
2022-10-26T14:56:25.211Z,15.83
2022-10-26T15:01:49.019Z,15.72
2022-10-26T15:07:02.431Z,15.60
2022-10-26T15:12:19.443Z,15.47
2022-10-26T15:17:32.817Z,15.31
2022-10-26T15:22:40.193Z,15.10
2022-10-26T15:27:47.404Z,14.88
2022-10-26T15:32:56.182Z,14.67
2022-10-26T15:38:03.323Z,14.46
2022-10-26T15:43:14.110Z,14.24
2022-10-26T15:48:25.698Z,14.02
2022-10-26T15:53:33.021Z,13.83
2022-10-26T15:58:40.145Z,13.61
2022-10-26T16:03:47.829Z,13.43
2022-10-26T16:08:57.795Z,13.23
2022-10-26T16:14:05.083Z,13.03
2022-10-26T16:24:40.786Z,12.60
2022-10-26T16:29:48.299Z,12.40
2022-10-26T16:34:55.279Z,12.23
2022-10-26T16:40:02.181Z,12.05
2022-10-26T16:45:10.550Z,11.94
2022-10-26T16:50:20.619Z,11.84
2022-10-26T16:55:28.048Z,11.65
2022-10-26T17:00:38.059Z,11.41
2022-10-26T17:05:45.266Z,11.22
2022-10-26T17:10:52.322Z,11.12
2022-10-26T17:16:03.888Z,11.14
2022-10-26T17:21:12.001Z,11.15
2022-10-26T17:26:19.160Z,10.95
2022-10-26T17:31:26.880Z,10.75
2022-10-26T17:36:34.071Z,10.66
2022-10-26T17:41:41.496Z,10.62
2022-10-26T17:46:48.893Z,10.52
2022-10-26T17:51:56.091Z,10.40
2022-10-26T17:57:03.013Z,10.43
2022-10-26T18:02:10.118Z,10.45
2022-10-26T18:07:17.146Z,10.44
2022-10-26T18:12:22.574Z,10.30
2022-10-26T18:17:29.579Z,10.08
2022-10-26T18:22:36.539Z,9.92
2022-10-26T18:27:43.856Z,9.82
2022-10-26T18:32:53.557Z,9.76
2022-10-26T18:38:00.689Z,9.74
2022-10-26T18:43:07.638Z,9.58
2022-10-26T18:48:13.040Z,9.47
2022-10-26T18:58:34.609Z,9.45
2022-10-26T19:03:43.928Z,9.27
2022-10-26T19:08:52.075Z,9.09
2022-10-26T19:14:00.574Z,9.04
2022-10-26T19:19:09.414Z,9.06
2022-10-26T19:24:18.982Z,9.10
2022-10-26T19:29:26.321Z,9.13
2022-10-26T19:34:33.975Z,9.12
2022-10-26T19:39:40.917Z,9.14
2022-10-26T19:44:46.275Z,9.13
2022-10-26T19:49:53.383Z,9.07
2022-10-26T19:54:58.721Z,9.02
2022-10-26T20:00:06.973Z,8.98
2022-10-26T20:05:13.973Z,8.90
2022-10-26T20:10:19.517Z,8.83
2022-10-26T20:15:26.599Z,8.82
2022-10-26T20:20:35.141Z,8.78
2022-10-26T20:25:47.200Z,8.66
2022-10-26T20:30:54.126Z,8.41
2022-10-26T20:36:02.643Z,8.19
2022-10-26T20:41:14.132Z,8.10
2022-10-26T20:46:25.510Z,8.02
2022-10-26T20:51:56.750Z,7.98
2022-10-26T20:57:16.173Z,7.96
2022-10-26T21:02:24.028Z,7.92
2022-10-26T21:07:31.178Z,7.87
2022-10-26T21:12:38.629Z,7.86
2022-10-26T21:17:45.579Z,7.88
2022-10-26T21:22:52.843Z,7.82
2022-10-26T21:28:00.336Z,7.70
2022-10-26T21:33:07.427Z,7.73
2022-10-26T21:38:13.403Z,7.76
2022-10-26T21:43:20.343Z,7.69
2022-10-26T21:48:27.837Z,7.59
2022-10-26T21:53:35.307Z,7.43
2022-10-26T21:58:42.409Z,7.33
2022-10-26T22:03:47.987Z,7.34
2022-10-26T22:08:55.749Z,7.34
2022-10-26T22:14:03.099Z,7.24
2022-10-26T22:19:11.296Z,7.19
2022-10-26T22:24:18.669Z,7.23
2022-10-26T22:29:25.828Z,7.21
2022-10-26T22:34:33.464Z,7.08
2022-10-26T22:39:40.447Z,6.99
2022-10-26T22:44:48.233Z,6.94
2022-10-26T22:49:55.476Z,6.90
2022-10-26T22:55:03.095Z,6.82
2022-10-26T23:00:12.602Z,6.80
2022-10-26T23:05:19.751Z,6.84
2022-10-26T23:10:27.443Z,6.85
2022-10-26T23:15:34.608Z,6.89
2022-10-26T23:20:42.655Z,6.82
2022-10-26T23:25:49.746Z,6.62
2022-10-26T23:30:55.061Z,6.50
2022-10-26T23:36:02.412Z,6.47
2022-10-26T23:41:12.185Z,6.48
2022-10-26T23:46:20.242Z,6.49
2022-10-26T23:51:25.988Z,6.49
2022-10-26T23:56:32.961Z,6.45
